Terminal Aerodrome Forecast
Issued by NWS Boston, MA

Home | Current Version | Previous Version | Text Only | Print | Product List | Glossary On
Versions: 1 2 3 4 5 6 7 8 9 10 11 12 13 14 15 16 17 18 19 20 21 22 23 24 25 26 27 28 29 30 31 32 33 34 35 36
000
FTUS41 KBOX 061122
TAFORH
TAF
KORH 061122Z 0612/0712 04007KT P6SM BKN020
     FM061300 05008KT P6SM VCSH BKN025
     FM061600 07009KT P6SM VCSH BKN035
     FM062000 09012KT P6SM -RA BKN040
     FM070100 08007KT 5SM -RA BKN015
     FM070300 07007KT 3SM -RA BR OVC008=

USA.gov is the U.S. government's official web portal to all federal, state and local government web resources and services.